Airport Name : Eareckson As

Other Name : Eareckson As

ICAO : PASY

IATA : SYA

FAA : PSYA

Latitude : 52.712275

Longitude : 174.11362

Country : United States

Local Date and Time : 11/20/2018 12:02:00 PM

 

TAF (Terminal Aerodrome Forecast)

 

METAR (METeorological Aerodrome Report)

PASY 202158Z AUTO 10009KT 7SM FEW027 03/M01 A3010 RMK AO2 SLP197 T00331007 $

PASY 202118Z AUTO 09006KT 7SM SCT024 BKN140 03/M01 A3012 RMK AO2 SLP204 $

PASY 202108Z AUTO 09008KT 7SM BKN024 OVC140 03/M01 A3012 RMK AO2 CIG 024V140 BKN V SCT SLP204 $

PASY 202058Z AUTO 08008KT 7SM SCT024 OVC150 03/M01 A3011 RMK AO2 SLP200 55000 $

PASY 201958Z AUTO 07008KT 7SM FEW022 02/M01 A3011 RMK AO2 SLP200 T00211011 FZRANO $

PASY 201858Z AUTO 05007KT 7SM CLR 01/M02 A3010 RMK AO2 SLP197 T00071020 FZRANO $